createdAt,value
2022-10-01T00:00:09.024Z,92.03
2022-10-01T00:03:12.052Z,92.10
2022-10-01T00:06:18.825Z,92.25
2022-10-01T00:09:20.891Z,92.15
2022-10-01T00:12:23.157Z,92.17
2022-10-01T00:15:26.462Z,92.22
2022-10-01T00:18:29.637Z,92.12
2022-10-01T00:21:32.435Z,92.18
2022-10-01T00:24:36.600Z,92.08
2022-10-01T00:27:38.671Z,91.97
2022-10-01T00:30:46.056Z,91.69
2022-10-01T00:33:48.491Z,91.66
2022-10-01T00:36:50.773Z,91.91
2022-10-01T00:39:52.843Z,91.95
2022-10-01T00:42:55.399Z,92.08
2022-10-01T00:46:00.226Z,92.07
2022-10-01T00:49:10.747Z,91.94
2022-10-01T00:52:16.026Z,92.13
2022-10-01T00:55:31.498Z,92.24
2022-10-01T00:58:33.864Z,92.17
2022-10-01T01:01:37.299Z,92.18
2022-10-01T01:04:40.458Z,92.13
2022-10-01T01:07:47.510Z,92.11
2022-10-01T01:10:50.179Z,92.10
2022-10-01T01:14:06.366Z,92.21
2022-10-01T01:17:15.389Z,92.33
2022-10-01T01:20:44.102Z,92.51
2022-10-01T01:24:12.350Z,92.44
2022-10-01T01:27:16.367Z,92.42
2022-10-01T01:30:18.657Z,92.59
2022-10-01T01:33:22.255Z,92.54
2022-10-01T01:36:32.322Z,92.63
2022-10-01T01:39:35.368Z,92.64
2022-10-01T01:42:39.707Z,92.81
2022-10-01T01:45:45.390Z,92.68
2022-10-01T01:48:51.139Z,92.48
2022-10-01T01:52:22.735Z,92.31
2022-10-01T01:55:26.130Z,92.36
2022-10-01T01:58:29.125Z,92.33
2022-10-01T02:01:39.562Z,92.32
2022-10-01T02:04:47.082Z,92.20
2022-10-01T02:08:01.800Z,92.21
2022-10-01T02:11:07.026Z,92.44
2022-10-01T02:14:21.210Z,92.45
2022-10-01T02:17:31.477Z,92.51
2022-10-01T02:20:42.707Z,92.60
2022-10-01T02:23:58.126Z,92.48
2022-10-01T02:27:03.365Z,92.46
2022-10-01T02:30:10.017Z,92.66
2022-10-01T02:33:14.870Z,92.60
2022-10-01T02:36:18.455Z,92.61
2022-10-01T02:39:21.954Z,92.59
2022-10-01T02:42:26.073Z,92.60
2022-10-01T02:45:32.201Z,92.78
2022-10-01T02:48:36.021Z,92.68
2022-10-01T02:51:43.568Z,92.70
2022-10-01T02:54:55.759Z,92.83
2022-10-01T02:57:57.776Z,93.20
2022-10-01T03:01:00.015Z,93.17
2022-10-01T03:04:02.368Z,93.24
2022-10-01T03:07:04.690Z,93.30
2022-10-01T03:10:07.672Z,93.42
2022-10-01T03:13:09.982Z,93.44
2022-10-01T03:16:12.088Z,93.33
2022-10-01T03:19:14.394Z,93.42
2022-10-01T03:22:22.643Z,93.41
2022-10-01T03:25:25.100Z,93.38
2022-10-01T03:28:27.570Z,93.43
2022-10-01T03:31:30.279Z,93.50
2022-10-01T03:34:32.424Z,93.36
2022-10-01T03:37:34.642Z,93.47
2022-10-01T03:40:39.116Z,93.41
2022-10-01T03:43:41.516Z,93.56
2022-10-01T03:46:43.852Z,93.45
2022-10-01T03:49:46.150Z,93.64
2022-10-01T03:52:50.647Z,94.15
2022-10-01T03:55:53.647Z,94.39
2022-10-01T03:58:55.690Z,94.55
2022-10-01T04:01:58.051Z,94.54
2022-10-01T04:05:00.437Z,94.61
2022-10-01T04:08:02.475Z,94.58
2022-10-01T04:11:08.234Z,94.69
2022-10-01T04:14:10.294Z,94.75
2022-10-01T04:17:12.604Z,94.72
2022-10-01T04:20:14.661Z,94.63
2022-10-01T04:23:17.000Z,94.67
2022-10-01T04:26:19.180Z,94.76
2022-10-01T04:29:21.415Z,94.83
2022-10-01T04:32:23.394Z,94.85
2022-10-01T04:35:28.471Z,94.86
2022-10-01T04:38:30.487Z,94.91
2022-10-01T04:41:33.279Z,95.02
2022-10-01T04:44:36.134Z,95.09
2022-10-01T04:47:38.439Z,95.16
2022-10-01T04:50:40.541Z,95.25
2022-10-01T04:53:43.003Z,95.27
2022-10-01T04:56:44.953Z,95.24
2022-10-01T04:59:47.673Z,95.27
2022-10-01T05:02:50.178Z,95.29
2022-10-01T05:05:52.447Z,95.32
2022-10-01T05:08:54.386Z,95.38
2022-10-01T05:11:56.645Z,95.38
2022-10-01T05:15:01.201Z,95.28
2022-10-01T05:18:03.486Z,95.31
2022-10-01T05:21:06.135Z,95.31
2022-10-01T05:24:08.408Z,94.91
2022-10-01T05:27:13.306Z,94.84
2022-10-01T05:30:24.207Z,94.98
2022-10-01T05:33:30.376Z,95.12
2022-10-01T05:36:32.639Z,95.52
2022-10-01T05:39:39.030Z,96.15
2022-10-01T05:42:45.243Z,96.37
2022-10-01T05:45:47.268Z,96.45
2022-10-01T05:48:51.269Z,96.52
2022-10-01T05:51:53.313Z,96.59
2022-10-01T05:54:55.594Z,96.54
2022-10-01T05:58:00.427Z,96.44
2022-10-01T06:01:04.078Z,96.33
2022-10-01T06:04:06.441Z,96.30
2022-10-01T06:07:08.797Z,96.44
2022-10-01T06:10:11.331Z,96.54
2022-10-01T06:13:17.645Z,96.54
2022-10-01T06:16:20.928Z,96.62
2022-10-01T06:19:23.015Z,96.64
2022-10-01T06:22:25.334Z,96.67
2022-10-01T06:25:31.139Z,96.62
2022-10-01T06:28:33.506Z,96.46
2022-10-01T06:31:35.801Z,96.20
2022-10-01T06:34:38.313Z,96.01
2022-10-01T06:37:40.294Z,95.66
2022-10-01T06:40:42.574Z,95.46
2022-10-01T06:43:44.548Z,94.61
2022-10-01T06:46:46.831Z,94.60
2022-10-01T06:49:49.572Z,94.90
2022-10-01T06:52:52.558Z,94.79
2022-10-01T06:55:54.792Z,94.75
2022-10-01T06:58:57.019Z,95.00
2022-10-01T07:01:59.095Z,94.90
2022-10-01T07:05:01.666Z,94.75
2022-10-01T07:08:03.935Z,94.20
2022-10-01T07:11:06.214Z,93.87
2022-10-01T07:14:09.115Z,93.92
2022-10-01T07:17:11.484Z,93.80
2022-10-01T07:20:14.872Z,93.98
2022-10-01T07:23:17.665Z,93.75
2022-10-01T07:26:19.860Z,93.73
2022-10-01T07:29:23.911Z,93.68
2022-10-01T07:32:26.167Z,93.69
2022-10-01T07:35:29.689Z,93.89
2022-10-01T07:38:33.463Z,94.12
2022-10-01T07:41:36.101Z,94.10
2022-10-01T07:44:38.270Z,94.05
2022-10-01T07:47:43.591Z,93.77
2022-10-01T07:50:45.883Z,93.59
2022-10-01T07:53:48.170Z,93.46
2022-10-01T07:56:52.937Z,93.37
2022-10-01T07:59:56.186Z,93.25
2022-10-01T08:02:58.519Z,93.26
2022-10-01T08:06:03.433Z,93.15
2022-10-01T08:09:06.197Z,92.93
2022-10-01T08:12:08.480Z,93.05
2022-10-01T08:15:11.327Z,92.87
2022-10-01T08:18:13.882Z,92.73
2022-10-01T08:21:16.079Z,92.50
2022-10-01T08:24:18.415Z,92.30
2022-10-01T08:27:21.727Z,91.99
2022-10-01T08:30:24.420Z,91.76
2022-10-01T08:33:26.454Z,91.93
2022-10-01T08:36:28.743Z,92.03
2022-10-01T08:39:30.745Z,91.93
2022-10-01T08:42:55.932Z,92.06
2022-10-01T08:46:01.656Z,91.93
2022-10-01T08:49:04.045Z,92.28
2022-10-01T08:52:26.455Z,91.83
2022-10-01T08:55:36.313Z,91.97
2022-10-01T08:58:43.647Z,92.16
2022-10-01T09:01:45.966Z,92.29
2022-10-01T09:04:51.088Z,92.25
2022-10-01T09:08:16.570Z,92.29
2022-10-01T09:11:30.966Z,92.11
2022-10-01T09:14:36.764Z,91.82
2022-10-01T09:18:01.702Z,91.22
2022-10-01T09:21:07.796Z,90.70
2022-10-01T09:24:25.085Z,90.62
2022-10-01T09:27:27.711Z,90.46
2022-10-01T09:30:30.219Z,90.57
2022-10-01T09:33:37.323Z,90.30
2022-10-01T09:36:44.093Z,89.64
2022-10-01T09:39:49.086Z,89.04
2022-10-01T09:42:51.503Z,87.99
2022-10-01T09:45:54.214Z,87.12
2022-10-01T09:49:03.327Z,86.25
2022-10-01T09:52:28.249Z,85.74
2022-10-01T09:55:34.149Z,84.28
2022-10-01T09:58:37.498Z,83.40
2022-10-01T10:01:39.741Z,82.87
2022-10-01T10:04:42.059Z,81.90
2022-10-01T10:07:45.771Z,79.62
2022-10-01T10:10:52.176Z,78.92
2022-10-01T10:14:02.866Z,77.99
2022-10-01T10:17:17.960Z,78.06
2022-10-01T10:20:31.191Z,77.97
2022-10-01T10:23:34.351Z,78.47
2022-10-01T10:26:38.804Z,78.07
2022-10-01T10:29:43.721Z,78.53
2022-10-01T10:32:49.019Z,78.29
2022-10-01T10:36:01.939Z,77.22
2022-10-01T10:39:06.349Z,74.19
2022-10-01T10:42:14.487Z,73.53
2022-10-01T10:45:21.458Z,72.50
2022-10-01T10:48:26.217Z,70.39
2022-10-01T10:51:28.445Z,71.24
2022-10-01T10:54:37.928Z,69.82
2022-10-01T10:57:39.957Z,70.26
2022-10-01T11:00:48.537Z,69.28
2022-10-01T11:03:53.403Z,68.03
2022-10-01T11:06:56.684Z,68.32
2022-10-01T11:10:18.748Z,67.31
2022-10-01T11:13:26.860Z,67.71
2022-10-01T11:16:41.271Z,68.44
2022-10-01T11:20:03.344Z,69.18
2022-10-01T11:23:28.126Z,69.76
2022-10-01T11:26:53.310Z,70.14
2022-10-01T11:30:03.360Z,69.99
2022-10-01T11:33:06.017Z,70.12
2022-10-01T11:36:41.314Z,69.25
2022-10-01T11:39:44.942Z,68.34
2022-10-01T11:42:50.960Z,67.63
2022-10-01T11:46:00.629Z,66.46
2022-10-01T11:49:11.299Z,66.80
2022-10-01T11:52:20.725Z,68.65
2022-10-01T11:55:54.103Z,67.52
2022-10-01T11:59:01.879Z,68.48
2022-10-01T12:02:15.382Z,69.04
2022-10-01T12:05:27.133Z,69.00
2022-10-01T12:08:31.899Z,68.78
2022-10-01T12:11:42.460Z,68.49
2022-10-01T12:14:57.632Z,67.44
2022-10-01T12:18:00.149Z,67.30
2022-10-01T12:21:04.088Z,66.00
2022-10-01T12:24:24.611Z,65.75
2022-10-01T12:27:53.567Z,67.16
2022-10-01T12:31:09.249Z,67.74
2022-10-01T12:34:17.410Z,68.13
2022-10-01T12:37:20.932Z,68.86
2022-10-01T12:40:30.937Z,69.98
2022-10-01T12:43:51.631Z,71.27
2022-10-01T12:47:04.580Z,72.05
2022-10-01T12:50:37.009Z,72.83
2022-10-01T12:53:44.754Z,72.91
2022-10-01T12:56:53.461Z,73.63
2022-10-01T13:00:05.021Z,73.72
2022-10-01T13:03:15.186Z,73.22
2022-10-01T13:06:25.876Z,72.86
2022-10-01T13:09:33.910Z,71.76
2022-10-01T13:12:41.948Z,70.82
2022-10-01T13:15:49.820Z,69.21
2022-10-01T13:19:17.757Z,67.75
2022-10-01T13:22:20.103Z,66.36
2022-10-01T13:25:29.230Z,66.86
2022-10-01T13:28:40.711Z,67.93
2022-10-01T13:31:59.302Z,67.00
2022-10-01T13:35:20.755Z,66.03
2022-10-01T13:38:31.739Z,65.87
2022-10-01T13:41:34.929Z,67.10
2022-10-01T13:44:39.384Z,67.32
2022-10-01T13:47:42.257Z,67.33
2022-10-01T13:51:11.048Z,68.78
2022-10-01T13:54:20.989Z,68.98
2022-10-01T13:57:37.354Z,71.51
2022-10-01T14:00:48.147Z,72.21
2022-10-01T14:04:09.359Z,74.51
2022-10-01T14:07:30.495Z,75.36
2022-10-01T14:10:36.315Z,74.54
2022-10-01T14:14:05.749Z,74.76
2022-10-01T14:17:11.981Z,73.76
2022-10-01T14:20:24.853Z,73.32
2022-10-01T14:24:01.374Z,74.44
2022-10-01T14:27:11.385Z,74.09
2022-10-01T14:30:26.109Z,74.35
2022-10-01T14:33:41.602Z,74.93
2022-10-01T14:36:45.290Z,75.23
2022-10-01T14:39:59.845Z,75.63
2022-10-01T14:43:03.538Z,76.31
2022-10-01T14:46:06.436Z,76.75
2022-10-01T14:49:19.117Z,77.16
2022-10-01T14:52:26.753Z,77.45
2022-10-01T14:55:29.378Z,76.80
2022-10-01T14:58:33.981Z,76.69
2022-10-01T15:01:36.812Z,76.62
2022-10-01T15:04:45.418Z,77.23
2022-10-01T15:07:47.888Z,77.44
2022-10-01T15:10:55.066Z,77.02
2022-10-01T15:14:06.861Z,77.91
2022-10-01T15:17:19.425Z,78.29
2022-10-01T15:20:21.886Z,79.17
2022-10-01T15:23:25.409Z,79.44
2022-10-01T15:26:28.296Z,79.98
2022-10-01T15:29:30.509Z,79.63
2022-10-01T15:32:37.197Z,79.50
2022-10-01T15:35:41.906Z,79.38
2022-10-01T15:38:52.064Z,80.29
2022-10-01T15:41:55.068Z,80.23
2022-10-01T15:45:21.192Z,80.12
2022-10-01T15:48:31.174Z,80.29
2022-10-01T15:51:33.941Z,80.36
2022-10-01T15:54:36.788Z,80.41
2022-10-01T15:57:48.996Z,80.39
2022-10-01T16:01:26.506Z,80.63
2022-10-01T16:04:29.113Z,80.98
2022-10-01T16:07:36.811Z,80.80
2022-10-01T16:10:45.970Z,80.81
2022-10-01T16:13:52.707Z,81.28
2022-10-01T16:17:14.332Z,81.17
2022-10-01T16:20:18.254Z,81.47
2022-10-01T16:23:35.828Z,81.07
2022-10-01T16:26:38.722Z,80.92
2022-10-01T16:29:41.216Z,80.22
2022-10-01T16:32:43.283Z,79.91
2022-10-01T16:35:48.591Z,79.45
2022-10-01T16:38:51.567Z,79.39
2022-10-01T16:42:19.051Z,79.44
2022-10-01T16:45:24.677Z,79.70
2022-10-01T16:48:28.130Z,79.47
2022-10-01T16:51:31.954Z,79.57
2022-10-01T16:54:34.534Z,79.59
2022-10-01T16:57:39.031Z,79.83
2022-10-01T17:00:41.998Z,79.38
2022-10-01T17:03:44.248Z,78.94
2022-10-01T17:06:46.659Z,78.63
2022-10-01T17:09:50.347Z,78.94
2022-10-01T17:12:53.857Z,78.81
2022-10-01T17:15:56.328Z,78.68
2022-10-01T17:18:58.734Z,77.59
2022-10-01T17:22:00.965Z,76.65
2022-10-01T17:25:03.653Z,76.52
2022-10-01T17:28:08.134Z,76.76
2022-10-01T17:31:15.600Z,76.22
2022-10-01T17:34:21.199Z,76.01
2022-10-01T17:37:24.034Z,75.93
2022-10-01T17:40:26.114Z,74.86
2022-10-01T17:43:28.759Z,74.96
2022-10-01T17:46:30.997Z,74.00
2022-10-01T17:49:33.293Z,73.57
2022-10-01T17:52:38.368Z,73.33
2022-10-01T17:55:41.856Z,73.16
2022-10-01T17:58:45.598Z,73.89
2022-10-01T18:01:50.031Z,73.64
2022-10-01T18:04:54.633Z,73.31
2022-10-01T18:07:57.134Z,72.66
2022-10-01T18:11:11.212Z,72.77
2022-10-01T18:14:13.408Z,73.05
2022-10-01T18:17:15.814Z,73.35
2022-10-01T18:20:18.837Z,73.59
2022-10-01T18:23:23.588Z,73.46
2022-10-01T18:26:25.635Z,73.73
2022-10-01T18:29:27.943Z,73.94
2022-10-01T18:32:36.843Z,74.41
2022-10-01T18:35:43.812Z,74.93
2022-10-01T18:38:47.696Z,75.44
2022-10-01T18:41:50.377Z,75.48
2022-10-01T18:44:56.184Z,75.59
2022-10-01T18:47:58.616Z,75.51
2022-10-01T18:51:15.543Z,75.12
2022-10-01T18:54:27.607Z,75.25
2022-10-01T18:57:29.632Z,75.56
2022-10-01T19:00:38.874Z,75.91
2022-10-01T19:04:00.172Z,76.16
2022-10-01T19:07:10.847Z,76.53
2022-10-01T19:10:31.511Z,76.72
2022-10-01T19:13:33.807Z,76.86
2022-10-01T19:16:41.951Z,76.97
2022-10-01T19:19:52.665Z,77.10
2022-10-01T19:23:04.375Z,77.42
2022-10-01T19:26:09.865Z,77.55
2022-10-01T19:29:11.968Z,77.43
2022-10-01T19:32:26.775Z,77.35
2022-10-01T19:35:37.887Z,77.54
2022-10-01T19:38:40.832Z,76.38
2022-10-01T19:41:44.464Z,76.10
2022-10-01T19:44:58.170Z,75.80
2022-10-01T19:48:15.941Z,75.42
2022-10-01T19:51:23.134Z,74.93
2022-10-01T19:54:30.177Z,74.84
2022-10-01T19:57:39.048Z,74.20
2022-10-01T20:00:41.434Z,73.79
2022-10-01T20:03:46.495Z,73.14
2022-10-01T20:06:48.570Z,72.89
2022-10-01T20:10:07.097Z,72.49
2022-10-01T20:13:21.470Z,72.35
2022-10-01T20:16:24.149Z,72.38
2022-10-01T20:19:41.214Z,71.79
2022-10-01T20:22:49.886Z,71.34
2022-10-01T20:26:10.442Z,71.09
2022-10-01T20:29:14.121Z,70.58
2022-10-01T20:32:16.226Z,70.36
2022-10-01T20:35:24.140Z,70.52
2022-10-01T20:38:33.374Z,70.39
2022-10-01T20:41:42.520Z,70.01
2022-10-01T20:44:45.352Z,69.65
2022-10-01T20:47:50.192Z,69.61
2022-10-01T20:50:54.126Z,69.38
2022-10-01T20:54:04.221Z,69.16
2022-10-01T20:57:27.963Z,69.00
2022-10-01T21:00:31.110Z,69.31
2022-10-01T21:03:39.338Z,68.81
2022-10-01T21:06:47.112Z,68.60
2022-10-01T21:09:51.525Z,68.25
2022-10-01T21:12:57.474Z,68.36
2022-10-01T21:16:18.265Z,68.65
2022-10-01T21:19:24.671Z,68.30
2022-10-01T21:22:26.918Z,68.34
2022-10-01T21:25:37.916Z,68.22
2022-10-01T21:28:39.933Z,68.10
2022-10-01T21:31:54.700Z,68.06
2022-10-01T21:34:59.996Z,68.27
2022-10-01T21:38:22.720Z,68.26
2022-10-01T21:41:28.667Z,68.29
2022-10-01T21:44:30.934Z,68.44
2022-10-01T21:47:32.934Z,68.60
2022-10-01T21:50:35.596Z,68.77
2022-10-01T21:53:52.787Z,69.02
2022-10-01T21:57:00.810Z,69.43
2022-10-01T22:00:13.221Z,69.20
2022-10-01T22:03:22.334Z,69.32
2022-10-01T22:06:38.718Z,69.38
2022-10-01T22:09:44.169Z,69.51
2022-10-01T22:12:50.724Z,69.37
2022-10-01T22:15:54.998Z,69.36
2022-10-01T22:19:00.637Z,69.43
2022-10-01T22:22:14.504Z,69.66
2022-10-01T22:25:16.691Z,69.74
2022-10-01T22:28:21.451Z,69.44
2022-10-01T22:31:26.840Z,69.71
2022-10-01T22:34:33.829Z,69.70
2022-10-01T22:37:39.536Z,69.57
2022-10-01T22:40:59.642Z,69.52
2022-10-01T22:44:18.855Z,69.54
2022-10-01T22:47:21.945Z,69.28
2022-10-01T22:50:39.001Z,69.57
2022-10-01T22:54:00.244Z,69.64
2022-10-01T22:57:31.519Z,69.64
2022-10-01T23:00:38.662Z,69.71
2022-10-01T23:03:48.674Z,69.90
2022-10-01T23:07:00.271Z,70.10
2022-10-01T23:10:37.854Z,70.21
2022-10-01T23:13:56.792Z,70.36
2022-10-01T23:17:04.767Z,70.42
2022-10-01T23:20:16.374Z,70.46
2022-10-01T23:23:27.168Z,70.32
2022-10-01T23:26:34.215Z,69.86
2022-10-01T23:29:42.260Z,70.18
2022-10-01T23:32:53.770Z,70.40
2022-10-01T23:35:58.477Z,70.34
2022-10-01T23:39:03.741Z,70.24
2022-10-01T23:42:11.872Z,70.36
2022-10-01T23:45:14.123Z,70.64
2022-10-01T23:48:23.599Z,70.67
2022-10-01T23:51:26.011Z,70.83
2022-10-01T23:54:40.462Z,70.78
2022-10-01T23:57:43.099Z,70.82
